Time;durP1;ratioP1;P1;durP2;ratioP2;P2;SDS_P1;SDS_P2;PMS_P1;PMS_P2;Temp;Humidity;BMP_temperature;BMP_pressure;BME280_temperature;BME280_humidity;BME280_pressure;Samples;Min_cycle;Max_cycle;Signal;HPM_P1;HPM_P2
2021/05/29 00:01:36;;;;;;;2.05;1.65;;;;;;;15.23;54.78;100108.22;6345859;28;20039;-60
2021/05/29 00:04:37;;;;;;;2.58;1.70;;;;;;;15.12;55.37;100114.31;6346756;28;20040;-60
2021/05/29 00:07:38;;;;;;;6.13;2.00;;;;;;;15.15;54.89;100106.19;6346620;28;20090;-59
2021/05/29 00:10:42;;;;;;;3.15;2.10;;;;;;;15.13;54.61;100109.91;6346893;28;20418;-60
2021/05/29 00:13:43;;;;;;;2.78;2.00;;;;;;;15.15;54.43;100108.81;6346973;28;20051;-59
2021/05/29 00:16:44;;;;;;;2.22;2.03;;;;;;;15.11;54.41;100100.34;6311766;28;20081;-59
2021/05/29 00:19:46;;;;;;;2.35;1.90;;;;;;;15.15;54.80;100106.19;6345152;28;20501;-59
2021/05/29 00:22:47;;;;;;;3.03;2.10;;;;;;;15.12;54.45;100098.56;6346626;28;20442;-60
2021/05/29 00:25:48;;;;;;;6.17;2.40;;;;;;;15.08;53.95;100097.97;6345423;28;20061;-59
2021/05/29 00:28:49;;;;;;;3.78;1.83;;;;;;;15.07;54.36;100093.69;6345102;28;20044;-59
2021/05/29 00:31:50;;;;;;;7.38;2.20;;;;;;;15.02;53.32;100100.25;6346576;28;20105;-59
2021/05/29 00:34:51;;;;;;;4.45;2.20;;;;;;;15.00;54.24;100095.09;6344990;28;20051;-60
2021/05/29 00:37:52;;;;;;;6.55;2.30;;;;;;;15.01;53.72;100098.56;6345051;28;20481;-59
2021/05/29 00:40:52;;;;;;;3.50;2.22;;;;;;;14.94;54.49;100092.94;6346157;28;20039;-60
2021/05/29 00:43:53;;;;;;;2.30;2.10;;;;;;;14.85;55.46;100086.63;6346189;28;20512;-59
2021/05/29 00:46:54;;;;;;;3.13;2.30;;;;;;;14.89;54.27;100090.69;6346113;28;20039;-58
2021/05/29 00:49:58;;;;;;;2.47;2.22;;;;;;;14.96;53.89;100082.34;6346464;28;20482;-59
2021/05/29 00:53:00;;;;;;;5.88;2.25;;;;;;;14.93;54.37;100079.94;6345097;28;20128;-59
2021/05/29 00:56:02;;;;;;;3.60;2.40;;;;;;;14.92;54.33;100081.72;6345955;28;20059;-59
2021/05/29 00:59:03;;;;;;;4.90;2.40;;;;;;;14.97;54.13;100078.72;6345074;28;20047;-59
2021/05/29 01:02:08;;;;;;;2.30;2.10;;;;;;;14.93;54.32;100080.78;6345978;28;20125;-60
2021/05/29 01:05:11;;;;;;;4.72;2.20;;;;;;;14.97;54.38;100073.47;6345912;28;20059;-60
2021/05/29 01:08:12;;;;;;;3.47;2.22;;;;;;;14.91;53.93;100077.44;6345609;28;20096;-60
2021/05/29 01:11:13;;;;;;;6.72;2.40;;;;;;;14.88;54.12;100069.78;6344683;28;20467;-59
2021/05/29 01:14:14;;;;;;;3.92;2.15;;;;;;;14.85;54.40;100062.16;6345751;28;20040;-59
2021/05/29 01:17:15;;;;;;;2.72;2.20;;;;;;;14.83;54.97;100064.91;6345992;28;20035;-59
2021/05/29 01:20:17;;;;;;;4.20;2.22;;;;;;;14.82;54.52;100057.97;6346212;28;20500;-60
2021/05/29 01:23:18;;;;;;;2.65;2.30;;;;;;;14.68;54.19;100056.44;6345974;28;20047;-60
2021/05/29 01:26:19;;;;;;;4.30;2.00;;;;;;;14.61;56.12;100052.63;6327552;28;20047;-59
2021/05/29 01:29:20;;;;;;;4.22;2.15;;;;;;;14.63;54.70;100063.84;6344279;28;20092;-58
2021/05/29 01:32:23;;;;;;;2.80;2.30;;;;;;;14.65;54.59;100064.53;6347907;28;20044;-59
2021/05/29 01:35:25;;;;;;;2.40;2.13;;;;;;;14.61;54.92;100059.66;6349868;27;20052;-59
2021/05/29 01:38:27;;;;;;;2.85;2.13;;;;;;;14.55;55.58;100058.31;6350322;28;20472;-60
2021/05/29 01:41:28;;;;;;;2.80;2.28;;;;;;;14.54;55.30;100058.41;6350428;28;20134;-59
2021/05/29 01:44:29;;;;;;;4.28;1.95;;;;;;;14.56;55.10;100057.41;6349287;28;20491;-60
2021/05/29 01:47:33;;;;;;;4.13;2.00;;;;;;;14.60;54.64;100056.22;6350187;28;20251;-59
2021/05/29 01:50:45;;;;;;;3.33;2.22;;;;;;;14.54;54.91;100055.78;6348988;28;20055;-59
2021/05/29 01:53:47;;;;;;;2.85;2.22;;;;;;;14.61;54.68;100057.88;6350467;28;20050;-60
2021/05/29 01:56:48;;;;;;;3.67;2.45;;;;;;;14.52;55.22;100054.13;6349955;28;20050;-59
2021/05/29 01:59:51;;;;;;;7.75;2.35;;;;;;;14.50;55.27;100060.47;6349933;28;20035;-59
2021/05/29 02:02:53;;;;;;;3.00;2.22;;;;;;;14.50;55.08;100049.97;6348541;28;20062;-59
2021/05/29 02:05:54;;;;;;;2.53;2.28;;;;;;;14.47;55.06;100048.41;6349650;28;20062;-59
2021/05/29 02:08:55;;;;;;;6.30;2.65;;;;;;;14.47;54.88;100047.56;6349484;28;20047;-60
2021/05/29 02:11:56;;;;;;;3.58;2.13;;;;;;;14.51;54.88;100044.56;6331644;28;20036;-60
2021/05/29 02:14:57;;;;;;;3.90;2.47;;;;;;;14.51;54.69;100043.75;6349445;28;20059;-60
2021/05/29 02:18:00;;;;;;;5.32;2.17;;;;;;;14.51;54.41;100049.00;6348168;28;20055;-59
2021/05/29 02:21:05;;;;;;;2.88;2.42;;;;;;;14.49;55.33;100045.66;6349329;28;20047;-59
2021/05/29 02:24:06;;;;;;;7.75;2.72;;;;;;;14.51;54.47;100046.38;6349796;28;20069;-59
2021/05/29 02:27:07;;;;;;;3.50;2.22;;;;;;;14.44;55.45;100047.81;6348085;28;20118;-60
2021/05/29 02:30:09;;;;;;;5.07;2.22;;;;;;;14.47;55.44;100039.69;6348103;28;20094;-59
2021/05/29 02:33:10;;;;;;;3.47;2.35;;;;;;;14.44;54.86;100043.41;6349171;28;20093;-59
2021/05/29 02:36:11;;;;;;;7.38;2.60;;;;;;;14.40;54.88;100047.22;6347834;28;20071;-59
2021/05/29 02:39:13;;;;;;;4.03;2.50;;;;;;;14.36;55.34;100037.91;6349003;28;20039;-59
2021/05/29 02:42:14;;;;;;;3.80;2.42;;;;;;;14.36;55.42;100050.19;6347827;28;20062;-59
2021/05/29 02:45:15;;;;;;;3.60;2.80;;;;;;;14.38;55.31;100049.13;6348763;28;20058;-59
2021/05/29 02:48:16;;;;;;;3.13;2.35;;;;;;;14.39;55.52;100049.94;6347482;28;20100;-59
2021/05/29 02:51:17;;;;;;;5.05;2.50;;;;;;;14.40;55.52;100057.72;6347751;28;20055;-59
2021/05/29 02:54:18;;;;;;;5.45;2.80;;;;;;;14.43;55.11;100059.25;6347516;28;20126;-60
2021/05/29 02:57:18;;;;;;;3.13;2.47;;;;;;;14.47;55.33;100052.81;6348695;28;20555;-59
2021/05/29 03:00:21;;;;;;;4.72;2.90;;;;;;;14.47;55.64;100063.31;6347345;28;20052;-59
2021/05/29 03:03:22;;;;;;;5.90;2.85;;;;;;;14.48;54.15;100057.97;6330663;28;20052;-59
2021/05/29 03:06:23;;;;;;;5.47;2.95;;;;;;;14.47;54.47;100064.16;6346977;28;20056;-59
2021/05/29 03:09:24;;;;;;;3.38;2.67;;;;;;;14.45;54.90;100054.72;6346859;28;20051;-60
2021/05/29 03:12:25;;;;;;;4.78;2.40;;;;;;;14.43;55.09;100051.38;6347004;28;20482;-59
2021/05/29 03:15:27;;;;;;;4.55;2.70;;;;;;;14.40;55.42;100047.22;6348170;27;20066;-60
2021/05/29 03:18:28;;;;;;;5.97;3.05;;;;;;;14.42;55.09;100045.31;6329955;28;20587;-60
2021/05/29 03:21:29;;;;;;;6.63;2.57;;;;;;;14.40;55.66;100041.13;6346628;28;20060;-59
2021/05/29 03:24:30;;;;;;;7.95;2.72;;;;;;;14.42;54.94;100049.72;6329770;28;20275;-59
2021/05/29 03:27:31;;;;;;;6.47;2.90;;;;;;;14.39;56.12;100039.44;6346613;28;20429;-59
2021/05/29 03:30:31;;;;;;;3.92;2.53;;;;;;;14.37;55.26;100036.97;6346514;28;20046;-59
2021/05/29 03:33:32;;;;;;;5.82;2.53;;;;;;;14.37;56.02;100041.34;6347651;28;20460;-59
2021/05/29 03:36:33;;;;;;;7.72;2.83;;;;;;;14.37;55.56;100047.47;6347503;28;20055;-59
2021/05/29 03:39:35;;;;;;;2.97;2.58;;;;;;;14.40;55.55;100052.47;6329359;28;20071;-59
2021/05/29 03:42:36;;;;;;;4.00;2.40;;;;;;;14.42;55.72;100055.81;6347441;28;20044;-59
2021/05/29 03:45:37;;;;;;;5.20;3.00;;;;;;;14.40;56.15;100055.09;6347383;28;20292;-59
2021/05/29 03:48:38;;;;;;;4.10;2.75;;;;;;;14.40;56.94;100056.88;6347118;28;20537;-60
2021/05/29 03:51:39;;;;;;;4.90;2.70;;;;;;;14.43;56.55;100052.25;6346074;28;20047;-59
2021/05/29 03:54:40;;;;;;;6.47;2.88;;;;;;;14.42;56.27;100050.56;6346674;28;20047;-59
2021/05/29 03:57:41;;;;;;;5.20;3.03;;;;;;;14.40;56.98;100046.38;6347199;28;20054;-59
2021/05/29 04:00:42;;;;;;;4.65;3.10;;;;;;;14.43;57.18;100040.88;6347054;28;20047;-59
2021/05/29 04:03:43;;;;;;;6.40;3.08;;;;;;;14.39;56.80;100049.94;6347071;28;20043;-60
2021/05/29 04:06:44;;;;;;;10.45;3.38;;;;;;;14.37;56.71;100052.72;6346819;28;20104;-60
2021/05/29 04:09:45;;;;;;;4.75;2.97;;;;;;;14.36;56.91;100052.81;6345486;28;20040;-59
2021/05/29 04:12:46;;;;;;;7.40;3.17;;;;;;;14.38;56.74;100050.91;6345725;28;20390;-59
2021/05/29 04:15:47;;;;;;;3.83;2.93;;;;;;;14.32;57.19;100053.03;6346818;28;20111;-60
2021/05/29 04:18:48;;;;;;;8.52;3.63;;;;;;;14.35;57.51;100059.00;6346621;28;20050;-59
2021/05/29 04:21:49;;;;;;;5.50;2.90;;;;;;;14.39;57.03;100057.81;6346570;28;20508;-59
2021/05/29 04:24:50;;;;;;;4.30;2.90;;;;;;;14.39;56.69;100065.69;6328524;28;20036;-60
2021/05/29 04:27:51;;;;;;;4.50;3.10;;;;;;;14.39;56.36;100060.44;6328375;28;20673;-60
2021/05/29 04:30:52;;;;;;;4.72;2.90;;;;;;;14.39;56.65;100063.94;6346542;28;20040;-60
2021/05/29 04:33:53;;;;;;;5.18;2.83;;;;;;;14.39;56.84;100058.69;6346403;28;20047;-60
2021/05/29 04:36:54;;;;;;;5.25;3.03;;;;;;;14.41;57.02;100066.41;6345125;28;20039;-59
2021/05/29 04:39:54;;;;;;;4.05;2.80;;;;;;;14.39;57.71;100063.94;6346185;28;20123;-59
2021/05/29 04:42:59;;;;;;;3.83;2.90;;;;;;;14.34;57.91;100066.06;6344963;28;20047;-60
2021/05/29 04:46:00;;;;;;;3.05;2.47;;;;;;;14.33;57.76;100069.66;6346302;28;20067;-60
2021/05/29 04:49:01;;;;;;;11.45;3.05;;;;;;;14.32;58.42;100063.53;6327860;28;20050;-59
2021/05/29 04:52:02;;;;;;;6.70;2.85;;;;;;;14.32;57.85;100081.91;6327967;28;20070;-60
2021/05/29 04:55:04;;;;;;;5.18;2.90;;;;;;;14.35;57.72;100082.63;6346124;28;20101;-60
2021/05/29 04:58:05;;;;;;;5.63;3.10;;;;;;;14.35;58.24;100088.75;6346294;28;20054;-59
2021/05/29 05:01:08;;;;;;;4.15;2.88;;;;;;;14.34;58.19;100087.06;6345890;28;20039;-60
2021/05/29 05:04:08;;;;;;;7.00;3.00;;;;;;;14.37;58.29;100084.22;6345944;28;20056;-60
2021/05/29 05:07:09;;;;;;;18.50;3.25;;;;;;;14.36;58.30;100085.16;6347910;27;20062;-59
2021/05/29 05:10:11;;;;;;;6.60;2.80;;;;;;;14.38;58.45;100085.88;6351010;28;20088;-59
2021/05/29 05:13:12;;;;;;;9.68;3.00;;;;;;;14.35;59.10;100086.13;6349859;28;20472;-59
2021/05/29 05:16:14;;;;;;;4.28;2.67;;;;;;;14.43;59.25;100086.38;6350997;28;20058;-60
2021/05/29 05:19:15;;;;;;;4.05;2.72;;;;;;;14.41;58.73;100083.03;6349711;28;20076;-60
2021/05/29 05:22:16;;;;;;;4.75;2.80;;;;;;;14.40;59.32;100080.50;6350791;28;20083;-60
2021/05/29 05:25:17;;;;;;;8.85;2.85;;;;;;;14.41;59.39;100084.78;6350935;28;20102;-60
2021/05/29 05:28:20;;;;;;;10.70;3.10;;;;;;;14.41;59.68;100077.78;6349469;28;20444;-60
2021/05/29 05:31:21;;;;;;;22.88;3.00;;;;;;;14.47;59.08;100072.03;6350524;28;20048;-59
2021/05/29 05:34:22;;;;;;;4.57;2.83;;;;;;;14.54;58.68;100079.44;6350479;28;20085;-59
2021/05/29 05:37:22;;;;;;;4.68;2.78;;;;;;;14.50;58.59;100074.44;6349364;28;20043;-59
2021/05/29 05:40:23;;;;;;;4.68;2.53;;;;;;;14.56;57.88;100081.03;6349154;28;20669;-60
2021/05/29 05:43:24;;;;;;;4.43;2.65;;;;;;;14.60;59.35;100078.97;6350342;28;20042;-60
2021/05/29 05:46:25;;;;;;;7.43;3.08;;;;;;;14.61;59.51;100073.63;6348914;28;20481;-60
2021/05/29 05:49:28;;;;;;;13.68;3.03;;;;;;;14.74;57.42;100070.88;6349978;28;20570;-60
2021/05/29 05:52:28;;;;;;;6.60;2.80;;;;;;;14.77;58.67;100073.28;6350098;28;20042;-61
2021/05/29 05:55:29;;;;;;;7.35;3.08;;;;;;;14.87;58.14;100070.75;6349082;28;20048;-60
2021/05/29 05:58:33;;;;;;;4.85;2.70;;;;;;;14.94;57.48;100071.94;6348837;28;20047;-60
2021/05/29 06:01:34;;;;;;;6.93;2.80;;;;;;;15.06;58.15;100075.41;6350279;28;20079;-60
2021/05/29 06:04:42;;;;;;;7.45;2.38;;;;;;;15.11;57.33;100079.34;6349832;28;20047;-60
2021/05/29 06:07:43;;;;;;;3.92;2.58;;;;;;;15.19;57.12;100078.69;6348502;28;20047;-60
2021/05/29 06:10:45;;;;;;;4.07;2.20;;;;;;;15.21;56.31;100081.22;6349562;28;20494;-61
2021/05/29 06:20:10;;;;;;;3.40;2.15;;;;;;;15.54;55.12;100074.19;6347931;28;20067;-59
2021/05/29 06:23:12;;;;;;;4.22;2.30;;;;;;;15.64;55.50;100078.56;6331718;28;20050;-60
2021/05/29 06:26:13;;;;;;;4.63;2.38;;;;;;;15.76;54.78;100081.22;6348183;28;20541;-60
2021/05/29 06:29:15;;;;;;;4.60;2.38;;;;;;;15.79;54.91;100084.41;6347699;27;20040;-61
2021/05/29 06:32:16;;;;;;;10.15;2.30;;;;;;;15.88;54.09;100088.91;6349210;28;20044;-61
2021/05/29 06:35:17;;;;;;;7.53;3.10;;;;;;;15.94;55.15;100091.97;6347897;28;20454;-61
2021/05/29 06:38:18;;;;;;;3.90;2.35;;;;;;;15.98;54.15;100093.41;6349160;28;20126;-61
2021/05/29 06:41:18;;;;;;;8.13;2.33;;;;;;;16.11;54.26;100091.44;6348559;28;20043;-60
2021/05/29 06:44:19;;;;;;;4.68;2.63;;;;;;;16.08;53.94;100089.91;6347589;28;20055;-60
2021/05/29 06:47:20;;;;;;;7.53;2.20;;;;;;;16.09;55.08;100085.47;6348849;28;20035;-61
2021/05/29 06:50:21;;;;;;;3.67;2.00;;;;;;;16.13;54.49;100084.25;6347330;28;20043;-60
2021/05/29 06:53:29;;;;;;;4.95;2.20;;;;;;;16.21;54.62;100088.88;6348918;28;20392;-60
2021/05/29 06:59:50;;;;;;;7.50;2.17;;;;;;;16.39;52.76;100084.69;6348455;28;20386;-61
2021/05/29 07:02:51;;;;;;;4.10;2.03;;;;;;;16.46;51.63;100092.88;6348350;28;20039;-61
2021/05/29 07:05:51;;;;;;;3.97;2.20;;;;;;;16.52;51.59;100087.94;6348310;28;20044;-60
2021/05/29 07:08:56;;;;;;;4.20;1.80;;;;;;;16.59;52.09;100092.66;6347027;28;20078;-60
2021/05/29 07:11:56;;;;;;;6.78;2.38;;;;;;;16.67;51.75;100084.94;6348186;28;20047;-60
2021/05/29 07:14:57;;;;;;;5.85;2.40;;;;;;;16.72;52.57;100080.97;6346887;28;20450;-60
2021/05/29 07:18:04;;;;;;;5.97;2.25;;;;;;;16.94;52.45;100080.91;6347005;28;20071;-59
2021/05/29 07:21:04;;;;;;;4.22;2.30;;;;;;;16.99;50.63;100079.56;6346720;28;20490;-60
2021/05/29 07:24:06;;;;;;;5.90;2.60;;;;;;;17.10;50.80;100078.59;6348003;28;20042;-60
2021/05/29 07:27:07;;;;;;;11.82;2.00;;;;;;;17.15;50.68;100079.03;6348245;28;20069;-60
2021/05/29 07:30:08;;;;;;;2.78;1.83;;;;;;;17.16;49.96;100087.78;6346553;28;20035;-60
2021/05/29 07:33:10;;;;;;;16.27;3.05;;;;;;;17.25;49.54;100081.69;6346497;28;20039;-61
2021/05/29 07:36:11;;;;;;;2.92;2.25;;;;;;;17.34;51.30;100080.88;6346514;28;20047;-61
2021/05/29 07:39:12;;;;;;;4.15;2.13;;;;;;;17.52;51.27;100084.53;6330393;28;20043;-60
2021/05/29 07:42:13;;;;;;;5.03;2.15;;;;;;;17.55;49.59;100075.50;6347099;28;20036;-61
2021/05/29 07:45:15;;;;;;;2.80;2.10;;;;;;;17.49;50.07;100084.78;6348402;28;20070;-59
2021/05/29 07:48:16;;;;;;;4.72;2.30;;;;;;;17.52;49.48;100081.88;6346797;28;20493;-59
2021/05/29 07:51:18;;;;;;;7.30;2.45;;;;;;;17.63;49.11;100090.63;6346758;28;20042;-60
2021/05/29 07:54:18;;;;;;;3.60;2.17;;;;;;;17.62;48.75;100083.69;6348513;28;20059;-59
2021/05/29 07:57:19;;;;;;;4.45;2.17;;;;;;;17.68;49.46;100091.88;6346730;28;20075;-58
2021/05/29 08:00:26;;;;;;;5.22;2.20;;;;;;;17.86;47.89;100094.69;6347906;28;20516;-58
2021/05/29 08:03:29;;;;;;;5.13;2.50;;;;;;;17.91;48.99;100088.97;6347791;28;20039;-58
2021/05/29 08:06:31;;;;;;;2.72;2.00;;;;;;;17.98;49.28;100087.47;6346454;28;20486;-58
2021/05/29 08:09:31;;;;;;;9.10;2.58;;;;;;;18.18;47.91;100087.41;6347669;28;20459;-58
2021/05/29 08:12:32;;;;;;;4.05;2.35;;;;;;;18.27;48.70;100097.97;6347642;28;20051;-59
2021/05/29 08:15:33;;;;;;;7.53;2.10;;;;;;;18.46;47.08;100097.09;6347632;28;20046;-58
2021/05/29 08:18:34;;;;;;;9.07;2.13;;;;;;;18.55;47.79;100099.84;6347460;28;20112;-59
2021/05/29 08:21:46;;;;;;;7.30;1.87;;;;;;;18.57;46.86;100093.44;6347308;28;20042;-58
2021/05/29 08:24:47;;;;;;;4.82;1.88;;;;;;;18.53;45.77;100092.06;6347412;28;20047;-58
2021/05/29 08:27:48;;;;;;;3.28;2.00;;;;;;;18.53;46.02;100099.97;6346060;28;20067;-59
2021/05/29 08:30:48;;;;;;;7.43;2.10;;;;;;;18.34;46.20;100098.22;6345956;28;20052;-59
2021/05/29 08:33:50;;;;;;;4.07;2.20;;;;;;;18.31;46.34;100095.88;6345936;28;20048;-58
2021/05/29 08:36:50;;;;;;;5.35;2.00;;;;;;;18.18;46.78;100104.13;6347258;28;20047;-58
2021/05/29 08:39:52;;;;;;;4.70;2.30;;;;;;;18.19;46.86;100111.06;6346996;28;20462;-59
2021/05/29 08:42:53;;;;;;;6.28;2.42;;;;;;;18.16;46.52;100105.22;6345227;28;20283;-59
2021/05/29 08:45:54;;;;;;;4.45;1.90;;;;;;;18.18;46.29;100100.63;6346219;28;20696;-60
2021/05/29 08:48:55;;;;;;;4.05;2.40;;;;;;;18.19;46.39;100112.88;6346488;28;20052;-59
2021/05/29 08:52:01;;;;;;;16.05;3.10;;;;;;;18.30;48.96;100118.84;6328789;28;20108;-59
2021/05/29 08:55:07;;;;;;;3.13;2.20;;;;;;;18.39;48.14;100111.00;6346853;28;20126;-59
2021/05/29 08:58:08;;;;;;;13.45;3.60;;;;;;;18.35;49.90;100112.28;6345791;28;20083;-59
2021/05/29 09:01:10;;;;;;;5.15;3.00;;;;;;;18.40;48.73;100121.44;6346586;28;20498;-59
2021/05/29 09:04:11;;;;;;;6.03;2.47;;;;;;;18.34;47.00;100108.78;6346805;28;20040;-59
2021/05/29 09:07:25;;;;;;;11.68;6.78;;;;;;;18.40;48.03;100117.97;6346476;28;20079;-60
2021/05/29 09:10:25;;;;;;;15.68;7.03;;;;;;;18.48;48.23;100118.09;6345397;28;20040;-59
2021/05/29 09:13:28;;;;;;;24.95;16.70;;;;;;;18.39;47.35;100111.00;6346709;28;20040;-60
2021/05/29 09:16:29;;;;;;;8.93;4.63;;;;;;;18.30;49.08;100117.97;6346772;28;20044;-59
2021/05/29 09:19:54;;;;;;;13.17;7.23;;;;;;;18.38;47.78;100117.28;6345525;28;20058;-59
2021/05/29 09:22:57;;;;;;;10.68;5.80;;;;;;;18.20;46.84;100120.66;6346508;28;20063;-60
2021/05/29 09:25:58;;;;;;;7.50;3.38;;;;;;;18.27;47.20;100119.09;6345327;28;20355;-60
2021/05/29 09:29:22;;;;;;;14.25;5.72;;;;;;;18.30;48.84;100121.47;6346577;28;20047;-61
2021/05/29 09:32:23;;;;;;;4.10;2.50;;;;;;;18.53;47.54;100113.19;6346153;28;20036;-61
2021/05/29 09:35:30;;;;;;;11.27;3.70;;;;;;;18.66;49.64;100116.38;6345019;28;20410;-61
2021/05/29 09:38:55;;;;;;;4.93;2.13;;;;;;;18.51;49.08;100121.28;6344838;28;20044;-61
2021/05/29 09:41:59;;;;;;;18.05;5.40;;;;;;;18.64;47.35;100117.50;6346381;28;20043;-60
2021/05/29 09:45:18;;;;;;;3.60;2.17;;;;;;;18.73;46.55;100117.44;6346329;28;20048;-59
2021/05/29 09:48:22;;;;;;;3.15;2.10;;;;;;;18.75;47.66;100112.00;6346406;28;20048;-60
2021/05/29 09:51:24;;;;;;;4.20;1.70;;;;;;;18.79;45.89;100112.59;6345115;28;20052;-60
2021/05/29 09:54:25;;;;;;;1.83;1.50;;;;;;;18.78;44.49;100110.88;6351019;28;20138;-61
2021/05/29 09:57:27;;;;;;;3.65;1.83;;;;;;;18.81;44.64;100103.53;6350695;28;20092;-61
2021/05/29 10:00:42;;;;;;;16.67;4.03;;;;;;;18.76;47.37;100103.13;6351059;28;20128;-60
2021/05/29 10:03:47;;;;;;;2.40;2.00;;;;;;;18.85;45.97;100099.63;6332757;28;20083;-60
2021/05/29 10:07:00;;;;;;;5.13;2.40;;;;;;;18.83;45.94;100101.56;6350536;28;20406;-60
2021/05/29 10:10:00;;;;;;;2.60;2.03;;;;;;;18.99;46.75;100097.50;6350580;28;20134;-60
2021/05/29 10:13:02;;;;;;;5.30;1.67;;;;;;;19.02;45.06;100099.81;6350557;28;20051;-60
2021/05/29 10:16:03;;;;;;;1.95;1.60;;;;;;;19.15;43.00;100107.41;6350104;28;20039;-59
2021/05/29 10:19:06;;;;;;;2.27;1.63;;;;;;;19.09;42.72;100109.66;6349047;28;20043;-59
2021/05/29 10:22:10;;;;;;;4.53;1.70;;;;;;;19.00;42.85;100105.25;6350167;28;20051;-59
2021/05/29 10:25:17;;;;;;;3.38;1.70;;;;;;;19.03;43.75;100112.09;6349208;28;20042;-59
2021/05/29 10:28:19;;;;;;;4.93;2.35;;;;;;;18.91;44.04;100103.50;6350319;28;20059;-59
2021/05/29 10:31:21;;;;;;;3.22;2.10;;;;;;;18.86;43.77;100108.38;6348826;28;20035;-59
2021/05/29 10:35:20;;;;;;;3.60;1.85;;;;;;;18.90;46.74;100109.75;6349929;28;20092;-59
2021/05/29 10:38:23;;;;;;;4.30;1.77;;;;;;;19.00;44.46;100113.19;6271718;28;20045;-59
2021/05/29 10:41:59;;;;;;;2.00;1.70;;;;;;;19.08;42.38;100113.28;6255298;28;20057;-60
2021/05/29 10:45:26;;;;;;;11.57;2.67;;;;;;;19.09;44.77;100114.13;6349011;28;20039;-59
2021/05/29 10:48:27;;;;;;;8.70;1.95;;;;;;;19.03;44.15;100110.25;6329995;28;20056;-59
2021/05/29 10:51:37;;;;;;;5.78;2.40;;;;;;;18.95;43.04;100106.69;6349443;28;20044;-60
2021/05/29 10:54:38;;;;;;;3.03;1.58;;;;;;;19.08;43.25;100105.34;6331249;28;20044;-59
2021/05/29 10:57:54;;;;;;;2.97;1.60;;;;;;;19.00;45.10;100101.78;6349585;28;20390;-60
2021/05/29 11:00:55;;;;;;;3.72;1.65;;;;;;;18.92;43.11;100098.06;6349473;28;20355;-60
2021/05/29 11:04:17;;;;;;;2.42;1.80;;;;;;;19.05;44.50;100100.38;6349169;28;20038;-60
2021/05/29 11:07:19;;;;;;;6.25;2.13;;;;;;;18.98;44.10;100098.44;6349026;28;20048;-60
2021/05/29 11:10:29;;;;;;;3.47;1.52;;;;;;;18.96;43.44;100098.59;6347788;28;20474;-59
2021/05/29 11:14:06;;;;;;;3.40;1.65;;;;;;;18.95;42.64;100093.47;6330739;28;20056;-59
2021/05/29 11:17:08;;;;;;;2.35;1.60;;;;;;;18.96;42.81;100095.13;6345855;28;20436;-59
2021/05/29 11:20:11;;;;;;;2.45;1.50;;;;;;;19.03;42.02;100093.56;6349127;28;20051;-59
2021/05/29 11:23:24;;;;;;;2.25;1.80;;;;;;;19.01;43.43;100083.13;6348441;28;20055;-60
2021/05/29 11:26:25;;;;;;;2.58;1.70;;;;;;;19.03;43.03;100086.47;6348536;28;20108;-60
2021/05/29 11:29:26;;;;;;;2.85;1.85;;;;;;;19.00;43.17;100089.38;6348369;28;20040;-60
2021/05/29 11:32:54;;;;;;;3.88;1.70;;;;;;;18.84;42.52;100079.47;6348667;28;20136;-60
2021/05/29 11:35:55;;;;;;;3.17;1.77;;;;;;;18.83;42.84;100076.97;6348529;28;20072;-60
2021/05/29 11:39:09;;;;;;;1.73;1.60;;;;;;;18.90;42.79;100078.03;6348391;28;20044;-60
2021/05/29 11:42:10;;;;;;;4.95;1.50;;;;;;;18.86;42.61;100072.22;6348440;28;20531;-59
2021/05/29 11:45:18;;;;;;;3.92;1.70;;;;;;;18.89;43.85;100069.28;6347076;28;20053;-60
2021/05/29 11:48:27;;;;;;;4.03;1.60;;;;;;;18.87;43.31;100070.41;6348482;28;20035;-60
2021/05/29 11:51:32;;;;;;;6.93;1.50;;;;;;;18.98;42.59;100072.84;6347738;28;20100;-59
2021/05/29 11:54:35;;;;;;;2.85;1.38;;;;;;;18.74;42.51;100065.44;6346624;28;20059;-59
2021/05/29 11:57:55;;;;;;;6.03;1.58;;;;;;;18.89;42.69;100069.28;6348114;28;20040;-60
2021/05/29 12:00:58;;;;;;;2.30;1.70;;;;;;;19.02;41.69;100068.91;6346712;28;20092;-61
2021/05/29 12:04:09;;;;;;;2.03;1.70;;;;;;;19.10;43.01;100065.53;6347958;28;20462;-61
2021/05/29 12:07:12;;;;;;;5.28;2.60;;;;;;;19.27;43.09;100067.41;6347512;28;20055;-61
2021/05/29 12:10:13;;;;;;;4.05;1.95;;;;;;;19.56;42.26;100071.66;6346523;28;20044;-61
2021/05/29 12:13:28;;;;;;;3.47;1.65;;;;;;;19.75;41.21;100065.38;6363619;27;20074;-60
2021/05/29 12:16:35;;;;;;;6.15;2.05;;;;;;;20.01;43.92;100057.47;6347010;28;20467;-61
2021/05/29 12:19:41;;;;;;;4.10;1.70;;;;;;;20.29;40.50;100052.84;6347091;28;20386;-62
2021/05/29 12:22:42;;;;;;;8.02;1.60;;;;;;;20.45;38.90;100052.13;6363546;27;20047;-62
2021/05/29 12:25:44;;;;;;;2.73;1.70;;;;;;;20.48;38.23;100046.50;6345983;28;20054;-61
2021/05/29 12:28:45;;;;;;;2.70;1.50;;;;;;;20.75;40.04;100049.13;6329223;28;20401;-62
2021/05/29 12:31:52;;;;;;;3.43;1.63;;;;;;;21.11;36.77;100049.78;6347260;28;20163;-61
2021/05/29 12:34:53;;;;;;;2.30;1.77;;;;;;;21.29;38.04;100042.50;6347333;28;20059;-61
2021/05/29 12:37:53;;;;;;;4.47;1.90;;;;;;;21.37;36.64;100052.28;6347391;28;20382;-61
2021/05/29 12:40:57;;;;;;;5.30;1.73;;;;;;;21.57;38.04;100036.91;6329267;28;20126;-63
2021/05/29 12:44:11;;;;;;;2.63;1.80;;;;;;;21.40;38.45;100030.75;6347033;28;20043;-63
2021/05/29 12:47:17;;;;;;;3.28;2.33;;;;;;;21.31;38.14;100037.88;6346121;28;20467;-60
2021/05/29 12:50:22;;;;;;;4.40;1.95;;;;;;;20.97;39.07;100037.13;6345774;28;20042;-62
2021/05/29 12:53:23;;;;;;;5.60;2.25;;;;;;;20.78;38.48;100032.94;6346928;28;20450;-61
2021/05/29 12:56:24;;;;;;;4.17;2.50;;;;;;;20.57;39.49;100028.84;6345747;28;20082;-61
2021/05/29 12:59:28;;;;;;;3.47;2.30;;;;;;;20.80;39.00;100025.66;6346843;28;20588;-59
2021/05/29 13:02:39;;;;;;;4.07;2.08;;;;;;;20.53;40.29;100027.50;6346385;28;20063;-64
2021/05/29 13:09:33;;;;;;;4.32;2.78;;;;;;;20.61;41.10;100018.75;6312677;28;20760;-58
2021/05/29 13:12:36;;;;;;;7.47;1.90;;;;;;;20.18;41.67;100012.53;6346966;28;20409;-58
2021/05/29 13:15:38;;;;;;;4.80;1.92;;;;;;;20.08;41.29;100017.97;6345594;28;20048;-58
2021/05/29 13:18:40;;;;;;;3.10;2.05;;;;;;;20.11;42.06;100013.16;6346880;28;20064;-58
2021/05/29 13:22:00;;;;;;;4.30;1.90;;;;;;;20.04;40.04;100020.09;6346698;28;20043;-58
2021/05/29 13:25:04;;;;;;;8.55;2.50;;;;;;;19.89;40.92;100016.34;6345556;28;20040;-59
2021/05/29 13:28:08;;;;;;;5.78;2.05;;;;;;;19.90;41.17;100005.59;6349821;28;20393;-59
2021/05/29 13:31:10;;;;;;;2.78;1.80;;;;;;;19.95;43.58;100004.28;6351144;28;20048;-63
2021/05/29 13:34:10;;;;;;;8.77;2.28;;;;;;;20.29;40.20;100004.34;6333505;28;20052;-60
2021/05/29 13:37:13;;;;;;;2.05;1.77;;;;;;;20.41;39.26;99999.59;6351063;28;20127;-61
2021/05/29 13:40:14;;;;;;;4.43;2.13;;;;;;;20.26;40.52;100004.66;6349933;28;20078;-62
2021/05/29 13:43:16;;;;;;;4.60;2.15;;;;;;;20.11;42.87;100004.41;6349650;28;20478;-61
2021/05/29 13:46:17;;;;;;;2.80;1.83;;;;;;;19.91;42.65;100012.56;6350117;28;20124;-61
2021/05/29 13:49:17;;;;;;;4.25;1.88;;;;;;;19.85;40.21;100005.25;6350032;28;20134;-61
2021/05/29 13:52:18;;;;;;;4.63;1.70;;;;;;;19.60;39.51;100008.63;6350096;28;20346;-62
2021/05/29 13:55:19;;;;;;;2.70;1.63;;;;;;;19.15;41.43;100007.75;6349928;28;20063;-61
2021/05/29 13:58:20;;;;;;;2.75;1.70;;;;;;;18.99;39.35;100008.41;6348973;28;20554;-61
2021/05/29 14:01:21;;;;;;;8.63;1.70;;;;;;;19.20;41.43;100015.25;6349935;28;20048;-61
2021/05/29 14:04:22;;;;;;;1.77;1.63;;;;;;;19.24;40.30;100019.25;6349832;28;20036;-63
2021/05/29 14:07:23;;;;;;;13.37;1.93;;;;;;;19.18;44.42;100033.91;6349528;28;20063;-62
2021/05/29 14:10:25;;;;;;;22.05;2.13;;;;;;;18.64;46.97;100036.41;6349972;28;20300;-62
2021/05/29 14:13:26;;;;;;;12.90;1.73;;;;;;;18.44;48.72;100046.19;6348646;28;20052;-61
2021/05/29 14:16:28;;;;;;;2.67;2.17;;;;;;;18.04;50.08;100051.75;6349379;28;20043;-61
2021/05/29 14:19:29;;;;;;;3.35;1.70;;;;;;;17.69;52.24;100064.53;6349484;28;20051;-61
2021/05/29 14:22:30;;;;;;;10.93;2.17;;;;;;;17.42;53.05;100064.34;6349320;28;20040;-62
2021/05/29 14:25:30;;;;;;;8.73;2.33;;;;;;;17.35;54.31;100057.97;6331102;28;20134;-61